createdAt,value
2019-02-02T00:00:55.732Z,38.30
2019-02-02T00:04:00.631Z,37.07
2019-02-02T00:07:05.458Z,37.00
2019-02-02T00:10:11.637Z,39.33
2019-02-02T00:13:16.579Z,39.27
2019-02-02T00:16:22.353Z,41.47
2019-02-02T00:19:27.216Z,35.47
2019-02-02T00:22:32.118Z,39.17
2019-02-02T00:25:36.998Z,40.40
2019-02-02T00:28:41.962Z,38.70
2019-02-02T00:31:46.775Z,38.17
2019-02-02T00:34:51.644Z,40.87
2019-02-02T00:37:56.486Z,40.73
2019-02-02T00:41:01.313Z,41.70
2019-02-02T00:44:06.382Z,41.37
2019-02-02T00:47:11.206Z,38.00
2019-02-02T00:50:17.677Z,42.75
2019-02-02T00:53:22.549Z,45.87
2019-02-02T00:56:27.416Z,45.03
2019-02-02T00:59:32.244Z,41.43
2019-02-02T01:02:37.152Z,42.00
2019-02-02T01:05:41.959Z,45.03
2019-02-02T01:08:46.797Z,47.57
2019-02-02T01:11:51.897Z,47.27
2019-02-02T01:14:56.754Z,48.20
2019-02-02T01:18:01.761Z,48.77
2019-02-02T01:21:06.621Z,46.87
2019-02-02T01:24:11.534Z,49.97
2019-02-02T01:27:16.417Z,50.73
2019-02-02T01:30:23.949Z,50.53
2019-02-02T01:33:28.821Z,51.47
2019-02-02T01:36:33.716Z,51.30
2019-02-02T01:39:38.550Z,48.00
2019-02-02T01:42:43.441Z,42.60
2019-02-02T01:45:48.883Z,47.08
2019-02-02T01:48:53.842Z,47.37
2019-02-02T01:51:58.820Z,50.40
2019-02-02T01:55:04.257Z,52.53
2019-02-02T01:58:16.439Z,55.30
2019-02-02T02:01:15.868Z,53.90
2019-02-02T02:04:20.740Z,55.57
2019-02-02T02:07:25.741Z,54.50
2019-02-02T02:10:30.627Z,53.57
2019-02-02T02:13:35.598Z,56.00
2019-02-02T02:16:40.442Z,53.13
2019-02-02T02:19:45.266Z,54.53
2019-02-02T02:22:50.551Z,55.10
2019-02-02T02:25:55.458Z,54.23
2019-02-02T02:29:00.294Z,55.90
2019-02-02T02:32:05.190Z,55.83
2019-02-02T02:35:10.533Z,52.23
2019-02-02T02:38:15.394Z,60.63
2019-02-02T02:41:20.235Z,60.13
2019-02-02T02:44:25.091Z,61.03
2019-02-02T02:47:30.213Z,55.63
2019-02-02T02:50:35.230Z,61.77
2019-02-02T02:53:40.255Z,58.60
2019-02-02T02:56:45.073Z,58.70
2019-02-02T02:59:49.961Z,55.47
2019-02-02T03:02:54.864Z,55.57
2019-02-02T03:05:59.699Z,59.67
2019-02-02T03:09:07.341Z,56.98
2019-02-02T03:12:12.173Z,56.77
2019-02-02T03:15:18.353Z,59.93
2019-02-02T03:18:23.209Z,56.50
2019-02-02T03:21:28.087Z,61.70
2019-02-02T03:24:33.043Z,58.43
2019-02-02T03:27:38.087Z,61.23
2019-02-02T03:30:43.238Z,59.40
2019-02-02T03:33:48.142Z,62.87
2019-02-02T03:36:53.054Z,61.30
2019-02-02T03:39:58.048Z,60.03
2019-02-02T03:43:03.032Z,59.83
2019-02-02T03:46:07.891Z,57.57
2019-02-02T03:49:12.806Z,60.03
2019-02-02T03:52:17.671Z,58.33
2019-02-02T03:55:23.530Z,60.03
2019-02-02T03:58:28.441Z,59.10
2019-02-02T04:01:33.290Z,63.77
2019-02-02T04:04:39.128Z,55.17
2019-02-02T04:07:43.978Z,61.33
2019-02-02T04:10:48.811Z,62.20
2019-02-02T04:13:53.663Z,59.97
2019-02-02T04:16:58.497Z,56.47
2019-02-02T04:20:05.004Z,56.83
2019-02-02T04:23:09.866Z,60.63
2019-02-02T04:26:14.786Z,58.80
2019-02-02T04:29:19.651Z,62.30
2019-02-02T04:32:24.840Z,59.77
2019-02-02T04:35:29.734Z,61.87
2019-02-02T04:38:34.722Z,60.87
2019-02-02T04:41:39.662Z,59.20
2019-02-02T04:44:44.524Z,62.53
2019-02-02T04:47:49.384Z,64.47
2019-02-02T04:50:54.253Z,62.80
2019-02-02T04:53:59.113Z,62.30
2019-02-02T04:57:04.043Z,62.43
2019-02-02T05:00:17.690Z,58.83
2019-02-02T05:03:22.558Z,63.10
2019-02-02T05:06:27.426Z,61.02
2019-02-02T05:09:32.294Z,63.65
2019-02-02T05:12:37.150Z,59.20
2019-02-02T05:15:41.990Z,57.70
2019-02-02T05:18:46.882Z,60.33
2019-02-02T05:21:51.729Z,62.10
2019-02-02T05:24:57.524Z,61.50
2019-02-02T05:28:02.379Z,60.40
2019-02-02T05:31:07.248Z,61.10
2019-02-02T05:34:12.081Z,61.40
2019-02-02T05:37:16.942Z,63.13
2019-02-02T05:40:22.818Z,63.43
2019-02-02T05:43:27.770Z,62.70
2019-02-02T05:46:32.699Z,61.60
2019-02-02T05:49:37.551Z,62.15
2019-02-02T05:52:42.438Z,60.07
2019-02-02T05:55:47.349Z,62.97
2019-02-02T05:58:52.204Z,60.30
2019-02-02T06:01:57.062Z,57.80
2019-02-02T06:05:01.888Z,56.80
2019-02-02T06:08:06.730Z,59.63
2019-02-02T06:11:11.558Z,58.27
2019-02-02T06:14:16.623Z,57.45
2019-02-02T06:17:21.663Z,55.83
2019-02-02T06:20:26.580Z,59.97
2019-02-02T06:23:31.678Z,59.20
2019-02-02T06:26:36.526Z,59.87
2019-02-02T06:29:41.382Z,61.57
2019-02-02T06:32:46.268Z,62.20
2019-02-02T06:35:51.093Z,51.00
2019-02-02T06:38:55.941Z,53.33
2019-02-02T06:42:00.798Z,60.10
2019-02-02T06:45:11.637Z,57.30
2019-02-02T06:48:16.560Z,60.63
2019-02-02T06:51:21.435Z,62.63
2019-02-02T06:54:26.264Z,58.00
2019-02-02T06:57:32.049Z,60.47
2019-02-02T07:00:36.924Z,56.63
2019-02-02T07:03:41.791Z,56.53
2019-02-02T07:06:46.671Z,56.13
2019-02-02T07:09:51.510Z,60.07
2019-02-02T07:12:56.528Z,60.77
2019-02-02T07:16:01.445Z,56.90
2019-02-02T07:19:06.360Z,56.10
2019-02-02T07:22:11.194Z,56.53
2019-02-02T07:25:16.129Z,56.50
2019-02-02T07:28:20.986Z,55.37
2019-02-02T07:31:25.940Z,60.10
2019-02-02T07:34:30.834Z,58.63
2019-02-02T07:37:36.196Z,57.60
2019-02-02T07:40:41.097Z,58.40
2019-02-02T07:43:46.950Z,52.80
2019-02-02T07:46:51.813Z,56.27
2019-02-02T07:49:56.673Z,60.17
2019-02-02T07:53:01.515Z,58.27
2019-02-02T07:56:06.481Z,56.83
2019-02-02T07:59:11.296Z,61.90
2019-02-02T08:02:16.153Z,54.77
2019-02-02T08:05:20.978Z,60.43
2019-02-02T08:08:25.814Z,52.80
2019-02-02T08:11:30.705Z,58.50
2019-02-02T08:14:35.670Z,57.40
2019-02-02T08:17:40.508Z,54.90
2019-02-02T08:20:45.350Z,60.37
2019-02-02T08:23:50.217Z,58.80
2019-02-02T08:26:55.072Z,60.37
2019-02-02T08:29:59.908Z,54.57
2019-02-02T08:33:05.407Z,58.30
2019-02-02T08:36:10.319Z,58.07
2019-02-02T08:39:15.145Z,58.17
2019-02-02T08:42:20.004Z,60.40
2019-02-02T08:45:24.838Z,61.77
2019-02-02T08:48:29.811Z,54.63
2019-02-02T08:51:34.661Z,53.23
2019-02-02T08:54:39.494Z,55.97
2019-02-02T08:57:44.326Z,55.23
2019-02-02T09:00:49.179Z,58.30
2019-02-02T09:03:54.163Z,60.73
2019-02-02T09:06:59.065Z,62.20
2019-02-02T09:10:07.979Z,58.23
2019-02-02T09:13:12.838Z,57.33
2019-02-02T09:16:17.688Z,59.30
2019-02-02T09:19:22.528Z,55.03
2019-02-02T09:22:27.402Z,58.53
2019-02-02T09:25:32.314Z,54.80
2019-02-02T09:28:37.125Z,56.50
2019-02-02T09:31:42.020Z,57.27
2019-02-02T09:34:46.886Z,57.93
2019-02-02T09:37:52.298Z,59.00
2019-02-02T09:40:57.170Z,54.27
2019-02-02T09:44:01.998Z,58.33
2019-02-02T09:47:06.839Z,54.83
2019-02-02T09:50:14.716Z,59.33
2019-02-02T09:53:19.590Z,60.73
2019-02-02T09:56:24.618Z,58.23
2019-02-02T09:59:29.482Z,59.37
2019-02-02T10:02:34.323Z,58.35
2019-02-02T10:05:39.182Z,53.73
2019-02-02T10:08:44.062Z,57.23
2019-02-02T10:11:48.906Z,58.53
2019-02-02T10:14:53.735Z,56.80
2019-02-02T10:17:58.650Z,57.93
2019-02-02T10:21:04.399Z,58.27
2019-02-02T10:24:09.480Z,48.33
2019-02-02T10:27:14.402Z,55.47
2019-02-02T10:30:22.807Z,56.77
2019-02-02T10:33:27.887Z,54.10
2019-02-02T10:36:32.783Z,55.47
2019-02-02T10:39:37.734Z,57.47
2019-02-02T10:42:42.681Z,54.00
2019-02-02T10:45:48.173Z,54.93
2019-02-02T10:48:52.994Z,53.60
2019-02-02T10:51:57.862Z,49.60
2019-02-02T10:55:02.715Z,57.43
2019-02-02T10:58:07.935Z,55.27
2019-02-02T11:01:12.807Z,56.70
2019-02-02T11:04:17.655Z,59.33
2019-02-02T11:07:22.588Z,57.73
2019-02-02T11:10:30.334Z,57.33
2019-02-02T11:13:36.301Z,54.90
2019-02-02T11:16:41.234Z,55.80
2019-02-02T11:19:46.233Z,58.90
2019-02-02T11:22:51.358Z,59.10
2019-02-02T11:25:57.260Z,58.90
2019-02-02T11:29:02.324Z,60.30
2019-02-02T11:32:07.284Z,54.37
2019-02-02T11:35:16.919Z,53.28
2019-02-02T11:38:21.802Z,51.60
2019-02-02T11:41:27.382Z,50.00
2019-02-02T11:44:32.341Z,49.50
2019-02-02T11:47:37.370Z,55.13
2019-02-02T11:50:42.395Z,52.10
2019-02-02T11:53:47.319Z,57.20
2019-02-02T11:56:52.186Z,57.73
2019-02-02T11:59:57.053Z,55.98
2019-02-02T12:03:04.398Z,57.27
2019-02-02T12:06:08.441Z,53.93
2019-02-02T12:09:13.385Z,58.50
2019-02-02T12:12:18.262Z,60.67
2019-02-02T12:15:24.217Z,60.60
2019-02-02T12:18:29.087Z,59.25
2019-02-02T12:21:33.905Z,57.50
2019-02-02T12:24:38.752Z,67.00
2019-02-02T12:27:44.154Z,58.23
2019-02-02T12:30:49.079Z,63.67
2019-02-02T12:33:53.945Z,58.80
2019-02-02T12:36:58.802Z,62.63
2019-02-02T12:40:06.084Z,61.70
2019-02-02T12:43:11.721Z,62.67
2019-02-02T12:46:16.707Z,62.33
2019-02-02T12:49:22.135Z,61.43
2019-02-02T12:52:27.001Z,58.23
2019-02-02T12:55:31.910Z,65.73
2019-02-02T12:58:36.788Z,60.83
2019-02-02T13:01:41.762Z,64.37
2019-02-02T13:04:46.675Z,62.03
2019-02-02T13:07:51.678Z,61.30
2019-02-02T13:10:57.455Z,64.45
2019-02-02T13:14:02.284Z,64.07
2019-02-02T13:17:07.152Z,63.38
2019-02-02T13:20:14.355Z,64.80
2019-02-02T13:23:19.218Z,61.73
2019-02-02T13:26:24.047Z,63.13
2019-02-02T13:29:28.873Z,61.17
2019-02-02T13:32:33.771Z,63.77
2019-02-02T13:35:39.604Z,60.27
2019-02-02T13:38:44.538Z,61.80
2019-02-02T13:41:49.366Z,61.67
2019-02-02T13:44:54.205Z,58.63
2019-02-02T13:47:59.373Z,58.87
2019-02-02T13:51:06.029Z,61.60
2019-02-02T13:54:10.791Z,61.43
2019-02-02T13:57:15.625Z,58.77
2019-02-02T14:00:25.932Z,58.57
2019-02-02T14:03:30.863Z,54.90
2019-02-02T14:06:35.725Z,49.70
2019-02-02T14:09:40.578Z,56.88
2019-02-02T14:12:45.456Z,53.07
2019-02-02T14:15:50.322Z,52.57
2019-02-02T14:18:55.186Z,49.97
2019-02-02T14:22:00.032Z,47.53
2019-02-02T14:25:07.687Z,47.57
2019-02-02T14:28:12.552Z,46.40
2019-02-02T14:31:17.416Z,46.40
2019-02-02T14:34:22.250Z,44.23
2019-02-02T14:37:28.041Z,44.67
2019-02-02T14:40:32.904Z,43.37
2019-02-02T14:43:37.729Z,41.73
2019-02-02T14:46:42.568Z,40.43
2019-02-02T14:49:47.422Z,38.67
2019-02-02T14:52:53.491Z,39.13
2019-02-02T14:55:58.365Z,39.87
2019-02-02T14:59:03.863Z,40.30
2019-02-02T15:02:08.975Z,38.57
2019-02-02T15:05:15.835Z,39.20
2019-02-02T15:08:20.681Z,38.75
2019-02-02T15:11:25.493Z,34.47
2019-02-02T15:14:30.372Z,36.77
2019-02-02T15:17:35.221Z,38.73
2019-02-02T15:20:40.078Z,36.10
2019-02-02T15:23:45.496Z,38.00
2019-02-02T15:26:50.629Z,35.73
2019-02-02T15:29:55.517Z,40.83
2019-02-02T15:33:00.422Z,42.57
2019-02-02T15:36:05.458Z,41.07
2019-02-02T15:39:10.276Z,42.47
2019-02-02T15:42:15.143Z,46.70
2019-02-02T15:45:25.832Z,46.30
2019-02-02T15:48:30.723Z,46.07
2019-02-02T15:51:40.163Z,46.80
2019-02-02T15:54:42.175Z,46.33
2019-02-02T15:57:47.013Z,45.53
2019-02-02T16:00:51.854Z,47.70
2019-02-02T16:03:57.050Z,42.30
2019-02-02T16:07:01.904Z,48.73
2019-02-02T16:10:09.917Z,47.13
2019-02-02T16:13:14.810Z,46.47
2019-02-02T16:16:19.721Z,48.70
2019-02-02T16:19:24.599Z,47.30
2019-02-02T16:22:29.446Z,46.93
2019-02-02T16:25:34.495Z,47.53
2019-02-02T16:28:39.397Z,46.00
2019-02-02T16:31:44.225Z,48.10
2019-02-02T16:34:49.049Z,47.17
2019-02-02T16:37:53.910Z,47.20
2019-02-02T16:40:58.741Z,43.60
2019-02-02T16:44:03.564Z,47.10
2019-02-02T16:47:08.414Z,44.40
2019-02-02T16:50:15.939Z,46.97
2019-02-02T16:53:21.895Z,43.33
2019-02-02T16:56:26.965Z,42.10
2019-02-02T16:59:31.922Z,43.03
2019-02-02T17:02:36.748Z,43.83
2019-02-02T17:05:41.625Z,42.63
2019-02-02T17:08:46.502Z,43.70
2019-02-02T17:11:51.423Z,43.93
2019-02-02T17:14:56.358Z,44.87
2019-02-02T17:18:01.259Z,46.03
2019-02-02T17:21:07.101Z,45.90
2019-02-02T17:24:11.906Z,43.67
2019-02-02T17:27:16.746Z,44.47
2019-02-02T17:30:23.921Z,43.73
2019-02-02T17:33:28.811Z,45.10
2019-02-02T17:36:33.827Z,47.07
2019-02-02T17:39:38.840Z,45.50
2019-02-02T17:42:44.071Z,46.97
2019-02-02T17:45:49.013Z,44.70
2019-02-02T17:48:54.078Z,47.17
2019-02-02T17:51:58.982Z,48.53
2019-02-02T17:55:05.130Z,44.83
2019-02-02T17:58:13.126Z,48.05
2019-02-02T18:01:16.590Z,46.93
2019-02-02T18:04:21.529Z,47.70
2019-02-02T18:07:26.378Z,46.98
2019-02-02T18:10:31.308Z,46.90
2019-02-02T18:13:36.735Z,45.87
2019-02-02T18:16:41.555Z,46.33
2019-02-02T18:19:46.447Z,44.97
2019-02-02T18:22:51.894Z,45.15
2019-02-02T18:25:56.750Z,46.77
2019-02-02T18:29:01.748Z,46.20
2019-02-02T18:32:13.266Z,43.63
2019-02-02T18:35:15.166Z,44.57
2019-02-02T18:38:20.014Z,45.63
2019-02-02T18:41:24.842Z,42.30
2019-02-02T18:44:29.663Z,43.97
2019-02-02T18:47:34.506Z,43.17
2019-02-02T18:50:39.364Z,43.80
2019-02-02T18:53:44.218Z,43.03
2019-02-02T18:56:49.086Z,43.50
2019-02-02T18:59:53.974Z,43.27
2019-02-02T19:02:58.877Z,45.23
2019-02-02T19:06:04.006Z,42.17
2019-02-02T19:09:09.917Z,42.73
2019-02-02T19:12:14.842Z,42.27
2019-02-02T19:15:20.063Z,43.07
2019-02-02T19:18:24.954Z,41.60
2019-02-02T19:21:29.805Z,44.90
2019-02-02T19:24:34.672Z,42.77
2019-02-02T19:27:39.576Z,42.93
2019-02-02T19:30:44.436Z,45.53
2019-02-02T19:33:49.279Z,44.37
2019-02-02T19:36:54.139Z,43.70
2019-02-02T19:39:58.985Z,45.50
2019-02-02T19:43:04.153Z,43.53
2019-02-02T19:46:09.072Z,44.13
2019-02-02T19:49:14.008Z,44.37
2019-02-02T19:52:18.889Z,43.93
2019-02-02T19:55:23.901Z,43.10
2019-02-02T19:58:29.080Z,46.07
2019-02-02T20:01:34.221Z,46.10
2019-02-02T20:04:39.098Z,45.63
2019-02-02T20:07:44.077Z,46.97
2019-02-02T20:10:49.254Z,45.80
2019-02-02T20:13:54.108Z,46.27
2019-02-02T20:16:58.929Z,47.23
2019-02-02T20:20:05.321Z,46.33
2019-02-02T20:23:10.270Z,47.27
2019-02-02T20:26:15.534Z,46.07
2019-02-02T20:29:20.571Z,47.43
2019-02-02T20:32:25.507Z,46.93
2019-02-02T20:35:40.171Z,47.73
2019-02-02T20:38:39.953Z,49.57
2019-02-02T20:41:43.512Z,49.10
2019-02-02T20:44:49.507Z,52.57
2019-02-02T20:47:55.323Z,49.80
2019-02-02T20:51:01.257Z,51.93
2019-02-02T20:54:07.175Z,50.03
2019-02-02T20:57:12.051Z,52.83
2019-02-02T21:00:20.974Z,51.13
2019-02-02T21:03:25.809Z,53.67
2019-02-02T21:06:30.743Z,51.83
2019-02-02T21:09:35.682Z,51.30
2019-02-02T21:12:40.550Z,53.42
2019-02-02T21:15:45.491Z,51.67
2019-02-02T21:18:50.326Z,50.37
2019-02-02T21:21:56.003Z,49.47
2019-02-02T21:25:00.848Z,51.27
2019-02-02T21:28:05.784Z,50.10
2019-02-02T21:31:10.763Z,51.00
2019-02-02T21:34:15.877Z,49.87
2019-02-02T21:37:20.705Z,49.47
2019-02-02T21:40:28.435Z,45.77
2019-02-02T21:43:33.684Z,47.77
2019-02-02T21:46:38.619Z,45.30
2019-02-02T21:49:43.453Z,43.43
2019-02-02T21:52:48.381Z,44.90
2019-02-02T21:55:53.285Z,43.67
2019-02-02T21:58:58.573Z,37.88
2019-02-02T22:02:03.806Z,38.00
2019-02-02T22:05:08.699Z,36.53
2019-02-02T22:08:13.733Z,36.33
2019-02-02T22:11:18.903Z,33.67
2019-02-02T22:14:24.002Z,32.40
2019-02-02T22:17:28.862Z,29.23
2019-02-02T22:20:33.790Z,26.63
2019-02-02T22:23:38.658Z,24.63
2019-02-02T22:26:44.126Z,23.77
2019-02-02T22:29:49.062Z,25.30
2019-02-02T22:32:54.252Z,22.87
2019-02-02T22:35:59.291Z,23.57
2019-02-02T22:39:07.023Z,21.77
2019-02-02T22:42:11.895Z,20.93
2019-02-02T22:45:18.136Z,22.57
2019-02-02T22:48:23.086Z,22.97
2019-02-02T22:51:28.027Z,23.77
2019-02-02T22:54:33.101Z,22.47
2019-02-02T22:57:38.035Z,23.18
2019-02-02T23:00:56.487Z,23.60
2019-02-02T23:04:07.037Z,21.80
2019-02-02T23:07:16.144Z,23.57
2019-02-02T23:10:41.015Z,26.55
2019-02-02T23:14:04.648Z,26.57
2019-02-02T23:17:10.068Z,25.07
2019-02-02T23:20:15.106Z,26.77
2019-02-02T23:23:20.171Z,28.70
2019-02-02T23:26:25.127Z,27.67
2019-02-02T23:29:30.676Z,26.43
2019-02-02T23:32:35.641Z,27.03
2019-02-02T23:35:41.175Z,27.98
2019-02-02T23:38:46.165Z,26.03
2019-02-02T23:41:51.129Z,25.17
2019-02-02T23:44:55.995Z,22.07
2019-02-02T23:48:00.901Z,21.63
2019-02-02T23:51:05.750Z,21.90
2019-02-02T23:54:10.586Z,20.10
2019-02-02T23:57:16.442Z,20.00
